createdAt,value
2019-01-19T00:02:34.709Z,84.31
2019-01-19T00:05:40.874Z,84.47
2019-01-19T00:08:39.619Z,84.26
2019-01-19T00:12:18.467Z,84.49
2019-01-19T00:15:18.075Z,84.14
2019-01-19T00:18:58.073Z,84.09
2019-01-19T00:22:10.126Z,83.94
2019-01-19T00:25:34.523Z,84.00
2019-01-19T00:28:31.486Z,84.39
2019-01-19T00:31:20.022Z,84.76
2019-01-19T00:34:39.358Z,84.88
2019-01-19T00:37:26.115Z,84.84
2019-01-19T00:41:12.071Z,85.41
2019-01-19T00:44:42.910Z,85.10
2019-01-19T00:48:15.426Z,85.31
2019-01-19T00:51:49.578Z,84.87
2019-01-19T00:54:45.318Z,84.88
2019-01-19T00:58:13.164Z,84.79
2019-01-19T01:01:02.847Z,85.01
2019-01-19T01:03:45.091Z,85.11
2019-01-19T01:07:14.409Z,84.88
2019-01-19T01:10:26.217Z,85.23
2019-01-19T01:13:35.729Z,85.14
2019-01-19T01:17:02.615Z,85.13
2019-01-19T01:20:22.134Z,84.92
2019-01-19T01:23:46.691Z,84.68
2019-01-19T01:27:01.894Z,84.80
2019-01-19T01:30:42.998Z,85.12
2019-01-19T01:34:06.932Z,85.15
2019-01-19T01:37:30.059Z,85.36
2019-01-19T01:40:51.215Z,85.97
2019-01-19T01:44:00.763Z,85.76
2019-01-19T01:47:28.046Z,85.58
2019-01-19T01:50:14.020Z,85.39
2019-01-19T01:53:32.832Z,85.64
2019-01-19T01:56:07.582Z,85.79
2019-01-19T01:59:13.535Z,85.92
2019-01-19T02:02:04.010Z,85.98
2019-01-19T02:05:05.990Z,85.92
2019-01-19T02:08:27.553Z,85.59
2019-01-19T02:11:50.271Z,85.42
2019-01-19T02:15:07.002Z,85.42
2019-01-19T02:18:23.714Z,86.22
2019-01-19T02:22:01.603Z,86.55
2019-01-19T02:25:26.487Z,86.22
2019-01-19T02:28:59.168Z,85.99
2019-01-19T02:32:02.969Z,86.31
2019-01-19T02:34:59.439Z,85.55
2019-01-19T02:37:48.210Z,86.54
2019-01-19T02:41:04.590Z,85.90
2019-01-19T02:44:26.807Z,85.89
2019-01-19T02:47:44.254Z,86.15
2019-01-19T02:50:52.067Z,85.80
2019-01-19T02:54:28.043Z,85.94
2019-01-19T02:58:05.356Z,86.06
2019-01-19T03:01:21.134Z,85.85
2019-01-19T03:04:34.873Z,86.73
2019-01-19T03:07:42.226Z,86.38
2019-01-19T03:10:42.508Z,86.43
2019-01-19T03:14:10.260Z,86.06
2019-01-19T03:17:28.625Z,85.85
2019-01-19T03:21:05.519Z,86.21
2019-01-19T03:24:21.088Z,86.29
2019-01-19T03:27:51.420Z,86.21
2019-01-19T03:31:22.397Z,86.62
2019-01-19T03:34:33.431Z,86.44
2019-01-19T03:38:00.723Z,86.42
2019-01-19T03:41:11.645Z,86.37
2019-01-19T03:44:30.066Z,86.31
2019-01-19T03:47:41.070Z,86.51
2019-01-19T03:51:02.717Z,86.12
2019-01-19T03:54:12.323Z,86.30
2019-01-19T03:57:26.449Z,86.78
2019-01-19T04:00:41.038Z,87.00
2019-01-19T04:03:57.722Z,86.67
2019-01-19T04:07:18.124Z,86.73
2019-01-19T04:11:12.565Z,86.39
2019-01-19T04:14:24.681Z,86.93
2019-01-19T04:18:07.278Z,86.29
2019-01-19T04:21:38.122Z,85.98
2019-01-19T04:24:39.302Z,86.17
2019-01-19T04:27:07.158Z,86.30
2019-01-19T04:29:35.298Z,86.34
2019-01-19T04:32:03.230Z,86.20
2019-01-19T04:34:31.402Z,86.20
2019-01-19T04:36:59.898Z,86.22
2019-01-19T04:39:27.007Z,86.22
2019-01-19T04:41:56.163Z,86.42
2019-01-19T04:44:23.791Z,86.32
2019-01-19T04:46:51.034Z,86.12
2019-01-19T04:49:18.207Z,86.14
2019-01-19T04:51:45.911Z,86.37
2019-01-19T04:54:13.177Z,86.15
2019-01-19T04:56:40.694Z,86.49
2019-01-19T04:59:08.154Z,86.34
2019-01-19T05:01:36.866Z,86.44
2019-01-19T05:04:04.759Z,86.14
2019-01-19T05:06:36.948Z,85.98
2019-01-19T05:09:07.483Z,86.09
2019-01-19T05:11:35.143Z,86.09
2019-01-19T05:14:03.063Z,85.94
2019-01-19T05:16:31.006Z,85.95
2019-01-19T05:18:58.439Z,86.08
2019-01-19T05:21:26.364Z,86.28
2019-01-19T05:23:54.747Z,86.15
2019-01-19T05:26:22.247Z,86.09
2019-01-19T05:28:49.642Z,86.26
2019-01-19T05:31:16.916Z,86.31
2019-01-19T05:33:44.479Z,86.36
2019-01-19T05:36:11.991Z,86.11
2019-01-19T05:38:39.994Z,86.27
2019-01-19T05:41:07.951Z,86.08
2019-01-19T05:43:35.259Z,86.50
2019-01-19T05:46:03.226Z,86.28
2019-01-19T05:48:33.006Z,86.17
2019-01-19T05:51:00.411Z,86.14
2019-01-19T05:53:28.418Z,86.37
2019-01-19T05:55:56.531Z,86.04
2019-01-19T05:58:24.138Z,86.20
2019-01-19T06:00:51.753Z,86.26
2019-01-19T06:03:19.213Z,86.29
2019-01-19T06:05:48.290Z,86.39
2019-01-19T06:08:16.205Z,86.19
2019-01-19T06:10:44.572Z,86.30
2019-01-19T06:13:12.149Z,86.19
2019-01-19T06:15:39.926Z,86.43
2019-01-19T06:18:08.078Z,86.60
2019-01-19T06:20:35.476Z,86.30
2019-01-19T06:23:03.159Z,86.24
2019-01-19T06:25:31.001Z,86.35
2019-01-19T06:27:58.212Z,86.58
2019-01-19T06:30:28.350Z,86.49
2019-01-19T06:32:56.103Z,86.11
2019-01-19T06:35:23.889Z,86.28
2019-01-19T06:37:51.523Z,86.13
2019-01-19T06:40:19.396Z,86.02
2019-01-19T06:42:47.041Z,86.12
2019-01-19T06:45:26.542Z,86.34
2019-01-19T06:47:54.948Z,86.46
2019-01-19T06:50:22.711Z,86.36
2019-01-19T06:52:50.566Z,86.21
2019-01-19T06:55:25.355Z,86.27
2019-01-19T06:57:53.250Z,86.05
2019-01-19T07:00:21.355Z,86.23
2019-01-19T07:02:49.425Z,86.29
2019-01-19T07:05:17.195Z,86.25
2019-01-19T07:07:44.602Z,86.27
2019-01-19T07:10:16.054Z,86.27
2019-01-19T07:12:43.816Z,86.21
2019-01-19T07:15:12.725Z,86.16
2019-01-19T07:17:40.155Z,86.19
2019-01-19T07:20:14.720Z,86.13
2019-01-19T07:22:42.950Z,86.20
2019-01-19T07:25:10.603Z,86.29
2019-01-19T07:27:38.213Z,86.20
2019-01-19T07:30:10.638Z,86.40
2019-01-19T07:32:38.438Z,86.63
2019-01-19T07:35:06.216Z,86.47
2019-01-19T07:37:38.936Z,86.28
2019-01-19T07:40:09.101Z,86.70
2019-01-19T07:42:37.911Z,86.39
2019-01-19T07:45:06.434Z,86.54
2019-01-19T07:47:35.858Z,86.61
2019-01-19T07:50:05.397Z,86.53
2019-01-19T07:52:32.508Z,86.64
2019-01-19T07:55:00.527Z,86.72
2019-01-19T07:57:31.412Z,86.97
2019-01-19T07:59:57.490Z,86.81
2019-01-19T08:02:24.667Z,86.90
2019-01-19T08:04:52.460Z,87.19
2019-01-19T08:07:20.694Z,86.81
2019-01-19T08:09:48.592Z,87.11
2019-01-19T08:12:16.563Z,87.57
2019-01-19T08:14:43.839Z,87.51
2019-01-19T08:17:11.624Z,87.33
2019-01-19T08:19:39.258Z,87.60
2019-01-19T08:22:06.848Z,87.87
2019-01-19T08:24:34.209Z,88.16
2019-01-19T08:27:02.036Z,88.13
2019-01-19T08:29:29.548Z,87.10
2019-01-19T08:31:57.135Z,87.69
2019-01-19T08:34:24.964Z,87.58
2019-01-19T08:36:52.924Z,87.28
2019-01-19T08:39:21.155Z,86.95
2019-01-19T08:41:48.568Z,86.80
2019-01-19T08:44:15.843Z,86.83
2019-01-19T08:46:43.707Z,86.92
2019-01-19T08:49:11.126Z,87.37
2019-01-19T08:51:38.473Z,87.38
2019-01-19T08:54:06.300Z,88.03
2019-01-19T08:56:33.857Z,87.64
2019-01-19T08:59:01.279Z,87.78
2019-01-19T09:01:29.033Z,87.46
2019-01-19T09:03:56.382Z,87.82
2019-01-19T09:06:24.357Z,87.29
2019-01-19T09:08:51.736Z,87.02
2019-01-19T09:11:19.558Z,86.14
2019-01-19T09:13:47.367Z,85.87
2019-01-19T09:16:20.505Z,85.66
2019-01-19T09:18:47.880Z,84.23
2019-01-19T09:21:15.709Z,84.37
2019-01-19T09:24:05.489Z,82.74
2019-01-19T09:26:33.501Z,81.82
2019-01-19T09:29:01.110Z,81.44
2019-01-19T09:31:29.136Z,81.10
2019-01-19T09:33:56.646Z,80.15
2019-01-19T09:36:24.580Z,80.13
2019-01-19T09:38:52.122Z,79.00
2019-01-19T09:41:19.879Z,78.25
2019-01-19T09:43:49.393Z,77.27
2019-01-19T09:46:17.230Z,77.16
2019-01-19T09:48:44.727Z,76.29
2019-01-19T09:51:13.688Z,75.64
2019-01-19T09:53:41.737Z,76.09
2019-01-19T09:56:09.835Z,74.40
2019-01-19T09:58:37.478Z,73.48
2019-01-19T10:01:05.650Z,73.98
2019-01-19T10:03:33.419Z,71.62
2019-01-19T10:06:01.393Z,71.59
2019-01-19T10:08:28.652Z,72.95
2019-01-19T10:10:56.606Z,71.83
2019-01-19T10:13:24.301Z,73.46
2019-01-19T10:15:51.534Z,73.01
2019-01-19T10:18:20.472Z,69.75
2019-01-19T10:20:48.397Z,71.52
2019-01-19T10:23:16.066Z,71.75
2019-01-19T10:25:44.238Z,66.01
2019-01-19T10:28:13.537Z,68.57
2019-01-19T10:30:41.165Z,68.33
2019-01-19T10:33:09.339Z,72.31
2019-01-19T10:35:37.134Z,72.80
2019-01-19T10:38:04.662Z,68.72
2019-01-19T10:40:32.393Z,72.91
2019-01-19T10:42:59.866Z,71.51
2019-01-19T10:45:28.125Z,71.60
2019-01-19T10:47:56.538Z,69.44
2019-01-19T10:50:24.284Z,67.19
2019-01-19T10:52:52.543Z,72.03
2019-01-19T10:55:20.670Z,63.16
2019-01-19T10:57:48.696Z,64.79
2019-01-19T11:00:25.646Z,62.72
2019-01-19T11:02:53.829Z,71.80
2019-01-19T11:05:21.717Z,72.24
2019-01-19T11:07:50.264Z,69.07
2019-01-19T11:10:20.932Z,71.17
2019-01-19T11:12:48.594Z,66.75
2019-01-19T11:15:16.466Z,59.93
2019-01-19T11:17:47.072Z,65.53
2019-01-19T11:20:28.847Z,65.05
2019-01-19T11:22:58.164Z,61.54
2019-01-19T11:25:25.533Z,63.18
2019-01-19T11:27:53.147Z,65.68
2019-01-19T11:30:26.505Z,66.02
2019-01-19T11:32:54.002Z,67.03
2019-01-19T11:35:21.985Z,61.59
2019-01-19T11:37:49.844Z,63.21
2019-01-19T11:40:37.763Z,63.16
2019-01-19T11:43:10.048Z,64.72
2019-01-19T11:45:37.985Z,64.69
2019-01-19T11:48:06.792Z,65.99
2019-01-19T11:50:34.605Z,67.56
2019-01-19T11:53:03.014Z,56.46
2019-01-19T11:55:31.585Z,62.62
2019-01-19T11:58:02.120Z,60.06
2019-01-19T12:00:31.928Z,58.89
2019-01-19T12:02:59.323Z,62.03
2019-01-19T12:05:26.829Z,55.89
2019-01-19T12:07:54.770Z,55.11
2019-01-19T12:10:26.000Z,56.93
2019-01-19T12:12:55.377Z,59.30
2019-01-19T12:15:23.911Z,63.63
2019-01-19T12:17:51.524Z,60.47
2019-01-19T12:20:37.546Z,60.29
2019-01-19T12:23:06.138Z,61.85
2019-01-19T12:25:33.952Z,60.63
2019-01-19T12:28:01.807Z,59.24
2019-01-19T12:30:30.420Z,62.01
2019-01-19T12:32:58.583Z,59.35
2019-01-19T12:35:26.326Z,60.16
2019-01-19T12:37:57.766Z,57.87
2019-01-19T12:40:26.427Z,61.33
2019-01-19T12:43:16.343Z,58.04
2019-01-19T12:46:00.039Z,57.77
2019-01-19T12:48:28.001Z,60.64
2019-01-19T12:50:55.811Z,59.38
2019-01-19T12:53:24.501Z,57.08
2019-01-19T12:55:51.771Z,61.37
2019-01-19T12:58:19.338Z,56.72
2019-01-19T13:00:46.887Z,57.12
2019-01-19T13:03:16.265Z,60.77
2019-01-19T13:06:43.027Z,60.90
2019-01-19T13:09:23.646Z,60.07
2019-01-19T13:12:42.198Z,61.88
2019-01-19T13:16:13.099Z,60.63
2019-01-19T13:19:45.428Z,63.36
2019-01-19T13:23:54.162Z,61.85
2019-01-19T13:27:11.262Z,61.88
2019-01-19T13:30:25.661Z,61.50
2019-01-19T13:33:10.008Z,62.28
2019-01-19T13:36:11.731Z,63.52
2019-01-19T13:39:42.426Z,61.57
2019-01-19T13:43:22.536Z,63.70
2019-01-19T13:46:06.705Z,61.71
2019-01-19T13:49:17.418Z,62.03
2019-01-19T13:52:44.335Z,64.38
2019-01-19T13:56:18.419Z,66.35
2019-01-19T13:59:49.865Z,62.67
2019-01-19T14:03:26.033Z,62.25
2019-01-19T14:06:57.872Z,60.17
2019-01-19T14:09:54.365Z,59.85
2019-01-19T14:13:16.790Z,59.41
2019-01-19T14:16:18.613Z,57.12
2019-01-19T14:19:17.693Z,62.18
2019-01-19T14:22:42.033Z,62.65
2019-01-19T14:26:09.274Z,63.30
2019-01-19T14:29:37.539Z,60.42
2019-01-19T14:33:08.579Z,57.94
2019-01-19T14:36:31.198Z,55.79
2019-01-19T14:39:49.224Z,56.45
2019-01-19T14:42:48.003Z,57.01
2019-01-19T14:45:49.674Z,57.49
2019-01-19T14:49:11.465Z,59.91
2019-01-19T14:52:13.269Z,58.65
2019-01-19T14:56:09.625Z,51.91
2019-01-19T14:59:41.457Z,54.05
2019-01-19T15:02:55.955Z,57.10
2019-01-19T15:05:53.401Z,53.08
2019-01-19T15:08:53.067Z,61.90
2019-01-19T15:12:11.187Z,55.88
2019-01-19T15:15:22.946Z,52.24
2019-01-19T15:18:33.208Z,52.68
2019-01-19T15:21:22.170Z,60.67
2019-01-19T15:24:17.531Z,57.53
2019-01-19T15:27:22.975Z,63.30
2019-01-19T15:30:29.972Z,53.17
2019-01-19T15:33:49.821Z,59.37
2019-01-19T15:37:32.086Z,55.95
2019-01-19T15:40:34.145Z,60.13
2019-01-19T15:43:24.721Z,58.83
2019-01-19T15:46:49.458Z,63.21
2019-01-19T15:50:16.805Z,61.54
2019-01-19T15:53:11.835Z,60.52
2019-01-19T15:56:11.318Z,57.47
2019-01-19T15:59:19.284Z,58.88
2019-01-19T16:02:54.869Z,65.58
2019-01-19T16:06:44.880Z,65.83
2019-01-19T16:10:27.815Z,66.86
2019-01-19T16:13:19.889Z,65.42
2019-01-19T16:16:42.562Z,67.41
2019-01-19T16:20:13.406Z,68.94
2019-01-19T16:23:51.990Z,69.26
2019-01-19T16:27:00.700Z,70.69
2019-01-19T16:30:12.048Z,63.57
2019-01-19T16:33:36.681Z,66.63
2019-01-19T16:37:08.831Z,67.37
2019-01-19T16:40:21.202Z,69.25
2019-01-19T16:43:18.947Z,68.02
2019-01-19T16:46:44.869Z,69.27
2019-01-19T16:49:56.721Z,66.45
2019-01-19T16:53:39.522Z,64.00
2019-01-19T16:56:59.556Z,67.86
2019-01-19T17:00:32.447Z,69.59
2019-01-19T17:04:40.808Z,68.71
2019-01-19T17:08:02.201Z,68.72
2019-01-19T17:11:16.571Z,71.96
2019-01-19T17:14:41.651Z,72.36
2019-01-19T17:17:50.417Z,70.08
2019-01-19T17:21:35.477Z,67.87
2019-01-19T17:24:33.015Z,72.09
2019-01-19T17:27:55.818Z,72.12
2019-01-19T17:31:33.783Z,71.94
2019-01-19T17:34:52.542Z,72.56
2019-01-19T17:38:24.755Z,70.69
2019-01-19T17:41:50.958Z,68.89
2019-01-19T17:44:56.142Z,71.49
2019-01-19T17:48:23.357Z,70.45
2019-01-19T17:51:36.318Z,68.30
2019-01-19T17:54:41.881Z,69.00
2019-01-19T17:57:44.247Z,71.84
2019-01-19T18:00:49.951Z,71.23
2019-01-19T18:04:10.249Z,73.40
2019-01-19T18:07:26.283Z,72.71
2019-01-19T18:10:30.022Z,71.90
2019-01-19T18:13:50.693Z,72.25
2019-01-19T18:17:16.163Z,72.54
2019-01-19T18:20:44.840Z,73.28
2019-01-19T18:23:54.521Z,73.45
2019-01-19T18:27:31.456Z,73.23
2019-01-19T18:30:38.543Z,74.85
2019-01-19T18:33:55.867Z,73.87
2019-01-19T18:37:13.587Z,73.38
2019-01-19T18:40:27.074Z,73.63
2019-01-19T18:43:39.477Z,74.25
2019-01-19T18:46:50.013Z,73.96
2019-01-19T18:50:27.789Z,74.57
2019-01-19T18:53:38.068Z,74.08
2019-01-19T18:57:20.305Z,73.45
2019-01-19T19:00:50.869Z,73.01
2019-01-19T19:04:22.576Z,74.13
2019-01-19T19:07:46.627Z,73.77
2019-01-19T19:11:24.806Z,74.18
2019-01-19T19:14:49.590Z,75.01
2019-01-19T19:18:21.152Z,73.92
2019-01-19T19:21:55.543Z,74.18
2019-01-19T19:25:12.587Z,74.97
2019-01-19T19:28:34.643Z,74.40
2019-01-19T19:31:47.307Z,74.56
2019-01-19T19:35:01.984Z,74.82
2019-01-19T19:38:21.637Z,74.86
2019-01-19T19:41:59.428Z,74.95
2019-01-19T19:45:05.670Z,74.31
2019-01-19T19:48:32.497Z,74.68
2019-01-19T19:51:54.603Z,74.75
2019-01-19T19:54:23.586Z,75.29
2019-01-19T19:56:51.605Z,75.38
2019-01-19T19:59:19.175Z,75.72
2019-01-19T20:01:47.149Z,76.29
2019-01-19T20:04:15.002Z,75.35
2019-01-19T20:06:42.739Z,75.57
2019-01-19T20:09:11.016Z,76.21
2019-01-19T20:11:38.924Z,75.97
2019-01-19T20:14:06.788Z,76.61
2019-01-19T20:16:35.456Z,75.99
2019-01-19T20:19:03.719Z,75.61
2019-01-19T20:21:31.754Z,75.77
2019-01-19T20:23:59.265Z,76.23
2019-01-19T20:26:26.932Z,76.34
2019-01-19T20:28:54.668Z,77.59
2019-01-19T20:31:22.742Z,78.27
2019-01-19T20:33:50.763Z,79.95
2019-01-19T20:36:17.943Z,81.26
2019-01-19T20:38:45.699Z,81.56
2019-01-19T20:41:13.216Z,80.22
2019-01-19T20:43:40.740Z,82.83
2019-01-19T20:46:08.428Z,83.03
2019-01-19T20:48:37.676Z,83.10
2019-01-19T20:51:07.333Z,83.41
2019-01-19T20:53:35.525Z,83.78
2019-01-19T20:56:03.838Z,82.26
2019-01-19T20:58:32.166Z,82.29
2019-01-19T21:01:01.070Z,81.17
2019-01-19T21:03:28.702Z,81.12
2019-01-19T21:05:57.158Z,80.41
2019-01-19T21:08:24.755Z,82.08
2019-01-19T21:10:52.789Z,81.13
2019-01-19T21:13:20.474Z,81.62
2019-01-19T21:15:47.690Z,81.50
2019-01-19T21:18:16.360Z,81.83
2019-01-19T21:20:44.984Z,81.86
2019-01-19T21:23:12.456Z,82.45
2019-01-19T21:25:50.104Z,82.40
2019-01-19T21:28:22.665Z,81.84
2019-01-19T21:30:51.373Z,81.39
2019-01-19T21:33:18.785Z,81.88
2019-01-19T21:35:51.504Z,81.18
2019-01-19T21:38:18.870Z,81.69
2019-01-19T21:40:47.187Z,81.55
2019-01-19T21:43:16.521Z,81.38
2019-01-19T21:45:50.525Z,81.73
2019-01-19T21:48:27.459Z,80.96
2019-01-19T21:50:56.156Z,81.68
2019-01-19T21:53:24.166Z,81.86
2019-01-19T21:55:51.789Z,81.89
2019-01-19T21:58:19.938Z,82.97
2019-01-19T22:00:47.369Z,81.50
2019-01-19T22:03:15.863Z,81.02
2019-01-19T22:05:49.503Z,81.53
2019-01-19T22:08:16.851Z,80.94
2019-01-19T22:10:46.361Z,81.12
2019-01-19T22:13:14.131Z,81.49
2019-01-19T22:15:41.654Z,81.69
2019-01-19T22:18:09.901Z,82.66
2019-01-19T22:20:37.902Z,82.41
2019-01-19T22:23:05.704Z,82.90
2019-01-19T22:25:33.493Z,83.22
2019-01-19T22:28:01.731Z,83.38
2019-01-19T22:30:32.303Z,83.43
2019-01-19T22:33:02.073Z,83.32
2019-01-19T22:35:30.060Z,83.22
2019-01-19T22:37:58.023Z,83.60
2019-01-19T22:40:25.485Z,83.56
2019-01-19T22:42:57.407Z,83.29
2019-01-19T22:45:25.244Z,82.60
2019-01-19T22:47:53.171Z,82.75
2019-01-19T22:50:21.113Z,82.67
2019-01-19T22:52:48.964Z,82.43
2019-01-19T22:55:17.990Z,82.54
2019-01-19T22:57:45.408Z,82.99
2019-01-19T23:01:00.774Z,82.63
2019-01-19T23:03:31.844Z,82.51
2019-01-19T23:05:59.213Z,82.94
2019-01-19T23:08:26.913Z,82.91
2019-01-19T23:11:01.069Z,82.55
2019-01-19T23:13:27.851Z,83.09
2019-01-19T23:15:55.250Z,83.13
2019-01-19T23:18:22.627Z,83.19
2019-01-19T23:20:50.110Z,82.75
2019-01-19T23:23:17.991Z,82.61
2019-01-19T23:25:45.362Z,83.00
2019-01-19T23:28:12.694Z,82.66
2019-01-19T23:30:40.371Z,82.98
2019-01-19T23:33:08.066Z,83.33
2019-01-19T23:35:35.995Z,83.85
2019-01-19T23:38:03.562Z,84.35
2019-01-19T23:40:32.225Z,83.83
2019-01-19T23:42:59.974Z,83.46
2019-01-19T23:45:27.439Z,83.51
2019-01-19T23:47:54.874Z,83.15
2019-01-19T23:50:22.593Z,83.80
2019-01-19T23:52:50.255Z,83.92
2019-01-19T23:55:18.728Z,84.00
2019-01-19T23:57:46.460Z,83.89
